Time;durP1;ratioP1;P1;durP2;ratioP2;P2;SDS_P1;SDS_P2;PMS_P1;PMS_P2;Temp;Humidity;BMP_temperature;BMP_pressure;BME280_temperature;BME280_humidity;BME280_pressure;Samples;Min_cycle;Max_cycle;Signal;HPM_P1;HPM_P2
2022/11/21 00:01:26;;;;;;;152.70;68.80;;;;;;;-1.27;88.99;97657.45;103084;1305;22468;-74
2022/11/21 00:03:56;;;;;;;147.50;66.00;;;;;;;-1.30;89.29;97660.86;102951;1312;139274;-74
2022/11/21 00:06:23;;;;;;;141.10;66.50;;;;;;;-1.31;89.19;97661.71;102969;1314;22593;-74
2022/11/21 00:08:51;;;;;;;149.40;66.30;;;;;;;-1.31;89.19;97660.40;102898;1304;22881;-74
2022/11/21 00:11:21;;;;;;;144.40;63.40;;;;;;;-1.32;89.05;97661.30;102772;1312;137476;-74
2022/11/21 00:13:48;;;;;;;141.10;65.00;;;;;;;-1.36;88.65;97657.27;102808;1291;22481;-73
2022/11/21 00:16:15;;;;;;;144.20;64.50;;;;;;;-1.40;88.85;97654.52;102855;1298;137532;-74
2022/11/21 00:18:43;;;;;;;145.60;63.30;;;;;;;-1.41;88.73;97652.03;103071;1287;23098;-74
2022/11/21 00:21:15;;;;;;;143.00;64.00;;;;;;;-1.43;88.84;97646.73;103312;1304;24045;-74
2022/11/21 00:23:43;;;;;;;139.80;62.90;;;;;;;-1.44;89.01;97648.93;103006;1292;26511;-74
2022/11/21 00:26:12;;;;;;;139.10;65.10;;;;;;;-1.43;89.38;97650.41;103017;1295;22484;-73
2022/11/21 00:28:39;;;;;;;;;;;;;;;-1.42;89.48;97652.20;103011;1288;137542;-74
2022/11/21 00:31:07;;;;;;;139.80;65.80;;;;;;;-1.45;89.23;97653.68;102723;1295;25273;-74
2022/11/21 00:33:35;;;;;;;132.70;62.30;;;;;;;-1.46;89.10;97648.17;102782;1312;138395;-74
2022/11/21 00:36:09;;;;;;;137.80;63.30;;;;;;;-1.47;88.88;97638.38;102938;1293;25424;-74
2022/11/21 00:38:36;;;;;;;143.60;65.50;;;;;;;-1.45;89.44;97635.98;103118;1310;24206;-74
2022/11/21 00:41:04;;;;;;;158.70;67.40;;;;;;;-1.44;89.17;97633.89;103037;1290;137513;-73
2022/11/21 00:43:31;;;;;;;145.00;65.10;;;;;;;-1.45;89.05;97641.64;102993;1287;25394;-73
2022/11/21 00:46:00;;;;;;;153.10;68.30;;;;;;;-1.47;89.02;97638.52;103024;1313;137745;-73
2022/11/21 00:48:28;;;;;;;137.70;67.30;;;;;;;-1.48;89.10;97642.69;103052;1311;25343;-73
2022/11/21 00:50:56;;;;;;;140.70;64.10;;;;;;;-1.48;88.97;97642.02;102867;1292;22748;-74
2022/11/21 00:53:23;;;;;;;151.50;67.50;;;;;;;-1.47;89.23;97642.98;102850;1292;137597;-74
2022/11/21 00:55:49;;;;;;;145.60;66.50;;;;;;;-1.45;89.13;97639.66;102872;1302;22611;-73
2022/11/21 00:58:16;;;;;;;148.20;65.40;;;;;;;-1.44;89.39;97638.23;102773;1309;137674;-74
2022/11/21 01:00:43;;;;;;;159.20;67.90;;;;;;;-1.45;89.53;97633.83;102836;1294;22511;-74
2022/11/21 01:03:10;;;;;;;153.80;68.70;;;;;;;-1.44;89.66;97633.03;102871;1303;24324;-74
2022/11/21 01:05:37;;;;;;;146.60;66.00;;;;;;;-1.42;89.54;97630.22;102882;1291;138139;-74
2022/11/21 01:08:04;;;;;;;137.30;63.40;;;;;;;-1.41;89.36;97626.40;102913;1290;25287;-74
2022/11/21 01:10:33;;;;;;;148.50;65.10;;;;;;;-1.41;89.19;97621.52;102831;1288;137641;-74
2022/11/21 01:13:00;;;;;;;135.30;61.90;;;;;;;-1.42;89.00;97616.11;102949;1288;25376;-74
2022/11/21 01:15:27;;;;;;;148.70;65.40;;;;;;;-1.44;89.24;97614.84;102771;1302;137764;-73
2022/11/21 01:17:54;;;;;;;136.80;60.20;;;;;;;-1.46;89.04;97613.48;102882;1301;25346;-74
2022/11/21 01:20:21;;;;;;;134.60;61.70;;;;;;;-1.47;89.13;97613.60;102806;1304;22474;-74
2022/11/21 01:22:48;;;;;;;136.30;63.70;;;;;;;-1.48;88.92;97610.38;102661;1297;138264;-74
2022/11/21 01:25:14;;;;;;;136.70;61.40;;;;;;;-1.50;88.78;97614.69;102681;1290;23186;-74
2022/11/21 01:27:41;;;;;;;129.60;58.60;;;;;;;-1.53;88.77;97612.35;102775;1289;137914;-74
2022/11/21 01:30:10;;;;;;;141.40;63.60;;;;;;;-1.54;88.74;97612.33;102783;1297;25311;-74
2022/11/21 01:32:37;;;;;;;137.40;62.20;;;;;;;-1.57;88.68;97614.24;102944;1312;25445;-74
2022/11/21 01:35:04;;;;;;;133.40;62.60;;;;;;;-1.59;88.38;97610.36;102483;1301;138315;-73
2022/11/21 01:37:31;;;;;;;141.60;66.70;;;;;;;-1.59;88.71;97605.95;102745;1289;25320;-73
2022/11/21 01:39:58;;;;;;;147.60;65.20;;;;;;;-1.60;88.70;97605.18;102706;1281;137830;-73
2022/11/21 01:42:25;;;;;;;137.70;64.40;;;;;;;-1.63;88.46;97603.09;102848;1300;22496;-73
2022/11/21 01:44:53;;;;;;;139.80;64.00;;;;;;;-1.67;88.06;97604.30;102815;1290;22602;-73
2022/11/21 01:47:21;;;;;;;154.80;66.20;;;;;;;-1.74;88.01;97608.70;102835;1290;137861;-73
2022/11/21 01:49:51;;;;;;;147.30;64.50;;;;;;;-1.78;87.98;97612.69;102815;1312;24465;-74
2022/11/21 01:52:28;;;;;;;143.80;63.90;;;;;;;-1.80;87.93;97611.95;102839;1313;138164;-73
2022/11/21 01:55:09;;;;;;;136.40;62.90;;;;;;;-1.81;88.11;97617.87;102927;1313;22517;-73
2022/11/21 01:57:43;;;;;;;139.00;61.80;;;;;;;-1.81;88.29;97617.17;102831;1288;138004;-74
2022/11/21 02:00:20;;;;;;;144.60;66.80;;;;;;;-1.83;88.13;97626.01;102835;1302;22458;-74
2022/11/21 02:02:52;;;;;;;142.70;63.60;;;;;;;-1.88;88.13;97628.16;102741;1313;22477;-74
2022/11/21 02:05:27;;;;;;;151.70;69.30;;;;;;;-1.91;88.26;97630.30;102992;1312;138368;-72
2022/11/21 02:07:57;;;;;;;144.70;66.50;;;;;;;-1.93;88.21;97630.02;102816;1303;22871;-72
2022/11/21 02:10:24;;;;;;;153.90;65.60;;;;;;;-1.93;88.38;97633.77;102750;1303;137575;-72
2022/11/21 02:12:54;;;;;;;150.00;66.10;;;;;;;-1.92;88.49;97637.14;102907;1292;22944;-72
2022/11/21 02:15:23;;;;;;;151.80;62.70;;;;;;;-1.88;88.78;97636.91;102861;1295;138655;-72
2022/11/21 02:17:51;;;;;;;136.70;61.60;;;;;;;-1.86;89.16;97629.18;102965;1301;24886;-72
2022/11/21 02:20:21;;;;;;;139.60;62.30;;;;;;;-1.83;89.08;97622.44;102948;1289;25380;-72
2022/11/21 02:23:14;;;;;;;143.40;62.90;;;;;;;-1.82;89.10;97619.41;102848;1308;138297;-72
2022/11/21 02:25:42;;;;;;;142.40;62.60;;;;;;;-1.79;88.95;97618.58;102885;1289;25315;-72
2022/11/21 02:28:13;;;;;;;139.70;64.60;;;;;;;-1.78;89.08;97619.86;102844;1295;137946;-72
2022/11/21 02:30:41;;;;;;;133.30;60.00;;;;;;;-1.77;88.93;97622.59;102881;1307;25837;-73
2022/11/21 02:33:09;;;;;;;135.00;60.20;;;;;;;-1.80;88.68;97623.13;102979;1290;25370;-72
2022/11/21 02:35:36;;;;;;;129.00;60.00;;;;;;;-1.82;88.28;97619.33;102698;1312;139325;-72
2022/11/21 02:38:18;;;;;;;121.10;57.50;;;;;;;-1.83;88.35;97618.16;102749;1313;24296;-72
2022/11/21 02:41:11;;;;;;;131.80;57.80;;;;;;;-1.82;88.33;97621.39;102651;1298;139705;-73
2022/11/21 02:43:54;;;;;;;133.70;57.50;;;;;;;-1.84;87.87;97617.05;102853;1289;22688;-73
2022/11/21 02:46:21;;;;;;;130.00;57.40;;;;;;;-1.89;88.08;97616.02;102874;1301;137625;-73
2022/11/21 02:48:48;;;;;;;134.10;60.40;;;;;;;-1.92;88.26;97610.16;102966;1310;24258;-73
2022/11/21 02:51:15;;;;;;;124.60;59.00;;;;;;;-1.94;88.12;97609.46;102881;1310;22477;-73
2022/11/21 02:53:41;;;;;;;129.20;60.60;;;;;;;-1.98;87.72;97604.27;102884;1289;138084;-73
2022/11/21 02:56:08;;;;;;;141.10;62.50;;;;;;;-2.01;87.56;97603.45;102963;1297;22541;-73
2022/11/21 02:58:35;;;;;;;139.80;59.50;;;;;;;-2.03;88.17;97607.98;102929;1311;137651;-73
2022/11/21 03:01:02;;;;;;;130.70;58.20;;;;;;;-2.04;88.38;97606.52;102865;1289;24255;-73
2022/11/21 03:03:29;;;;;;;143.90;63.10;;;;;;;-2.08;88.12;97598.94;102773;1301;138007;-73
2022/11/21 03:05:56;;;;;;;139.90;61.50;;;;;;;-2.10;88.30;97595.98;102891;1310;22551;-73
2022/11/21 03:08:22;;;;;;;122.80;56.90;;;;;;;-2.13;88.63;97599.66;102983;1310;25322;-73
2022/11/21 03:10:49;;;;;;;129.20;57.30;;;;;;;-2.14;88.78;97599.36;102860;1295;138214;-73
2022/11/21 03:13:16;;;;;;;129.80;58.10;;;;;;;-2.15;88.56;97598.92;102916;1289;22553;-73
2022/11/21 03:15:43;;;;;;;121.60;57.30;;;;;;;-2.17;88.64;97598.45;102806;1296;137772;-73
2022/11/21 03:18:10;;;;;;;140.80;61.20;;;;;;;-2.21;88.67;97598.19;102985;1307;25214;-73
2022/11/21 03:20:37;;;;;;;134.20;60.10;;;;;;;-2.25;88.68;97598.70;102927;1303;22491;-73
2022/11/21 03:23:04;;;;;;;138.40;62.20;;;;;;;-2.29;88.54;97592.67;102845;1294;138615;-73
2022/11/21 03:25:31;;;;;;;132.90;58.60;;;;;;;-2.29;88.79;97584.71;102922;1296;22610;-73
2022/11/21 03:27:57;;;;;;;137.80;60.00;;;;;;;-2.29;89.17;97581.38;102798;1285;138085;-73
2022/11/21 03:30:25;;;;;;;128.70;59.30;;;;;;;-2.29;89.66;97577.98;102940;1310;22515;-73
2022/11/21 03:32:56;;;;;;;140.70;61.40;;;;;;;-2.29;89.53;97573.60;102904;1286;22480;-73
2022/11/21 03:35:24;;;;;;;136.90;62.50;;;;;;;-2.30;89.75;97571.16;102827;1287;138316;-73
2022/11/21 03:37:51;;;;;;;128.70;58.20;;;;;;;-2.29;89.84;97567.31;102912;1312;22494;-73
2022/11/21 03:40:19;;;;;;;130.30;59.20;;;;;;;-2.27;89.71;97570.16;102666;1291;138113;-71
2022/11/21 03:42:45;;;;;;;136.10;59.60;;;;;;;-2.30;89.12;97568.49;102838;1294;25290;-72
2022/11/21 03:45:12;;;;;;;145.30;59.80;;;;;;;-2.33;89.16;97567.14;102942;1310;23077;-72
2022/11/21 03:47:40;;;;;;;136.60;59.80;;;;;;;-2.35;89.53;97563.92;102805;1298;137666;-72
2022/11/21 03:50:07;;;;;;;133.30;58.80;;;;;;;-2.34;89.85;97555.45;102973;1288;22478;-72
2022/11/21 03:52:34;;;;;;;121.90;55.50;;;;;;;-2.32;89.97;97549.91;102762;1289;138357;-72
2022/11/21 03:55:01;;;;;;;127.40;56.00;;;;;;;-2.29;90.14;97551.70;102804;1312;22494;-72
2022/11/21 03:57:28;;;;;;;128.60;58.60;;;;;;;-2.29;89.76;97554.89;102685;1306;137696;-72
2022/11/21 03:59:54;;;;;;;132.90;55.70;;;;;;;-2.31;89.41;97562.73;102528;1311;22498;-72
2022/11/21 04:02:21;;;;;;;130.60;57.60;;;;;;;-2.34;89.34;97565.32;102873;1306;22475;-72
2022/11/21 04:04:48;;;;;;;125.80;56.00;;;;;;;-2.39;88.99;97572.58;102893;1305;139125;-72
2022/11/21 04:07:15;;;;;;;121.70;55.50;;;;;;;-2.40;89.08;97573.79;103157;1295;25557;-72
2022/11/21 04:09:42;;;;;;;127.60;58.00;;;;;;;-2.43;88.52;97573.77;102926;1287;138693;-72
2022/11/21 04:12:09;;;;;;;125.60;55.60;;;;;;;-2.50;88.37;97573.67;102992;1295;24269;-72
2022/11/21 04:14:36;;;;;;;128.30;55.70;;;;;;;-2.58;88.05;97576.70;102992;1291;22477;-72
2022/11/21 04:17:03;;;;;;;128.60;57.90;;;;;;;-2.63;88.25;97574.59;102931;1312;138279;-72
2022/11/21 04:19:30;;;;;;;129.50;60.30;;;;;;;-2.67;88.10;97577.66;102923;1297;23889;-72
2022/11/21 04:21:57;;;;;;;127.40;56.30;;;;;;;-2.71;88.04;97576.90;102900;1298;138235;-72
2022/11/21 04:24:24;;;;;;;125.20;55.40;;;;;;;-2.74;88.48;97577.68;103024;1288;22479;-72
2022/11/21 04:26:54;;;;;;;133.00;57.00;;;;;;;-2.76;88.84;97574.70;102973;1289;24671;-72
2022/11/21 04:29:21;;;;;;;136.00;54.10;;;;;;;-2.76;88.64;97578.96;103080;1301;138281;-72
2022/11/21 04:31:47;;;;;;;144.70;61.50;;;;;;;-2.78;89.03;97578.85;103105;1288;26494;-72
2022/11/21 04:34:14;;;;;;;138.60;59.10;;;;;;;-2.76;89.21;97576.70;102983;1310;138275;-72
2022/11/21 04:36:41;;;;;;;142.20;58.30;;;;;;;-2.75;89.57;97570.47;102933;1288;22493;-72
2022/11/21 04:39:08;;;;;;;148.50;59.40;;;;;;;-2.71;89.64;97567.39;102999;1304;22485;-72
2022/11/21 04:41:35;;;;;;;150.50;60.60;;;;;;;-2.68;89.69;97567.31;102850;1288;137969;-72
2022/11/21 04:44:02;;;;;;;154.40;61.40;;;;;;;-2.67;89.89;97560.69;103041;1304;25454;-72
2022/11/21 04:46:29;;;;;;;159.10;63.60;;;;;;;-2.68;89.88;97556.63;102813;1309;137713;-72
2022/11/21 04:48:56;;;;;;;139.20;60.80;;;;;;;-2.68;89.80;97551.58;102819;1291;22484;-72
2022/11/21 04:51:23;;;;;;;129.90;56.00;;;;;;;-2.68;89.94;97551.34;103033;1287;22467;-72
2022/11/21 04:53:50;;;;;;;134.00;56.80;;;;;;;-2.68;89.89;97546.66;102916;1296;137850;-72
2022/11/21 04:56:17;;;;;;;134.20;56.10;;;;;;;-2.64;90.30;97550.40;103093;1298;22672;-72
2022/11/21 04:58:44;;;;;;;140.90;57.80;;;;;;;-2.62;90.21;97550.84;103096;1292;137582;-72
2022/11/21 05:01:11;;;;;;;131.00;56.20;;;;;;;-2.60;90.13;97548.33;103116;1304;23235;-73
2022/11/21 05:03:38;;;;;;;122.50;54.90;;;;;;;-2.58;89.76;97545.64;102991;1295;138893;-72
2022/11/21 05:06:05;;;;;;;124.30;53.60;;;;;;;-2.59;89.51;97541.82;103053;1290;22504;-72
2022/11/21 05:08:32;;;;;;;121.70;53.50;;;;;;;-2.61;89.36;97538.77;103028;1312;24446;-72
2022/11/21 05:13:45;;;;;;;108.80;51.80;;;;;;;-2.64;88.86;97538.54;102796;1304;22576;-72
2022/11/21 05:16:12;;;;;;;129.50;57.00;;;;;;;-2.69;89.06;97536.89;102893;1310;137668;-72
2022/11/21 05:18:38;;;;;;;124.00;55.50;;;;;;;-2.72;88.96;97533.42;103017;1310;22545;-72
2022/11/21 05:21:05;;;;;;;122.00;56.60;;;;;;;-2.75;88.81;97529.95;103044;1310;22485;-72
2022/11/21 05:23:32;;;;;;;116.70;55.30;;;;;;;-2.74;88.74;97527.91;102895;1310;138534;-72
2022/11/21 05:25:59;;;;;;;120.40;52.00;;;;;;;-2.76;88.68;97525.16;103036;1311;22486;-72
2022/11/21 05:28:26;;;;;;;118.90;56.80;;;;;;;-2.79;88.37;97525.21;102916;1311;137687;-72
2022/11/21 05:30:53;;;;;;;127.10;57.00;;;;;;;-2.89;88.06;97524.05;102947;1280;22506;-72
2022/11/21 05:33:20;;;;;;;136.10;57.90;;;;;;;-2.94;88.79;97527.92;103073;1305;22524;-72
2022/11/21 05:35:47;;;;;;;120.60;55.90;;;;;;;-2.93;89.62;97528.34;103009;1287;138219;-72
2022/11/21 05:38:14;;;;;;;119.90;51.30;;;;;;;-2.90;89.44;97523.98;102979;1286;22477;-72
2022/11/21 05:40:41;;;;;;;122.90;53.90;;;;;;;-2.88;89.26;97515.05;102960;1286;138618;-72
2022/11/21 05:45:55;;;;;;;127.40;54.60;;;;;;;-2.85;89.48;97515.19;102072;1305;1097972;-72
2022/11/21 05:48:22;;;;;;;122.80;57.20;;;;;;;-2.86;89.23;97512.66;103037;1312;24330;-72
2022/11/21 05:50:49;;;;;;;128.80;59.30;;;;;;;-2.92;88.59;97509.05;103037;1312;24304;-72
2022/11/21 05:53:16;;;;;;;127.20;56.50;;;;;;;-2.98;88.40;97506.48;102959;1312;138265;-72
2022/11/21 05:55:44;;;;;;;128.20;55.60;;;;;;;-3.03;88.44;97507.09;103118;1302;22632;-72
2022/11/21 05:58:11;;;;;;;129.40;56.60;;;;;;;-3.07;88.90;97507.02;102999;1295;137865;-72
2022/11/21 06:00:38;;;;;;;130.50;53.80;;;;;;;-3.08;89.39;97504.27;103089;1296;25311;-72
2022/11/21 06:05:57;;;;;;;121.20;55.50;;;;;;;-3.05;89.59;97487.56;102929;1310;138072;-72
2022/11/21 06:08:24;;;;;;;120.10;54.20;;;;;;;-3.06;89.16;97478.85;103044;1297;22482;-72
2022/11/21 06:10:51;;;;;;;120.40;53.90;;;;;;;-3.08;89.48;97474.36;103047;1291;137551;-72
2022/11/21 06:13:21;;;;;;;126.90;55.00;;;;;;;-3.09;89.42;97473.41;103084;1282;22469;-72
2022/11/21 06:16:09;;;;;;;121.60;53.10;;;;;;;-3.09;89.73;97475.77;102811;1313;139302;-72
2022/11/21 06:18:38;;;;;;;120.60;53.40;;;;;;;-3.12;89.78;97476.63;103036;1313;25428;-72
2022/11/21 06:21:08;;;;;;;115.60;53.40;;;;;;;-3.11;89.84;97476.56;103078;1301;25410;-72
2022/11/21 06:23:35;;;;;;;;;;;;;;;-3.12;89.55;97477.52;103022;1289;138383;-72
2022/11/21 06:26:05;;;;;;;119.50;52.00;;;;;;;-3.13;89.80;97486.54;102995;1280;25269;-72
2022/11/21 06:28:36;;;;;;;119.50;53.20;;;;;;;-3.11;90.14;97494.35;102996;1303;137659;-72
2022/11/21 06:31:04;;;;;;;113.90;50.60;;;;;;;-3.07;90.53;97489.24;103092;1290;22552;-72
2022/11/21 06:33:32;;;;;;;121.40;54.20;;;;;;;-3.02;90.69;97488.79;102823;1293;137751;-72
2022/11/21 06:36:08;;;;;;;113.10;51.60;;;;;;;-2.96;90.85;97493.99;103089;1289;22488;-72
2022/11/21 06:38:35;;;;;;;102.10;49.20;;;;;;;-2.90;90.43;97496.05;103150;1298;25329;-72
2022/11/21 06:41:14;;;;;;;102.60;47.70;;;;;;;-2.89;90.07;97495.11;102901;1305;138047;-72
2022/11/21 06:43:41;;;;;;;100.20;48.10;;;;;;;-2.90;89.73;97488.55;103397;1285;26500;-72
2022/11/21 06:46:09;;;;;;;99.00;46.60;;;;;;;-2.88;90.32;97482.52;103034;1281;137764;-72
2022/11/21 06:48:37;;;;;;;114.30;52.80;;;;;;;-2.86;90.24;97480.83;102947;1293;22477;-72
2022/11/21 06:51:20;;;;;;;102.10;48.60;;;;;;;-2.81;90.46;97485.77;103032;1288;24331;-71
2022/11/21 06:53:54;;;;;;;102.50;49.20;;;;;;;-2.74;90.70;97489.88;102871;1291;138073;-72
2022/11/21 06:56:26;;;;;;;105.50;49.60;;;;;;;-2.68;90.96;97489.20;103005;1296;22507;-72
2022/11/21 06:58:53;;;;;;;109.90;49.50;;;;;;;-2.62;91.37;97486.41;103050;1312;137879;-72
2022/11/21 07:01:20;;;;;;;102.20;47.50;;;;;;;-2.55;91.41;97484.59;103048;1288;22476;-72
2022/11/21 07:03:47;;;;;;;96.30;42.80;;;;;;;-2.53;91.13;97478.43;103043;1297;138331;-70
2022/11/21 07:06:14;;;;;;;125.20;56.70;;;;;;;-2.31;93.51;97480.94;102935;1313;24242;-72
2022/11/21 07:08:40;;;;;;;101.20;48.20;;;;;;;-2.17;92.11;97480.48;102963;1304;23188;-72
2022/11/21 07:11:13;;;;;;;109.50;50.00;;;;;;;-2.06;91.88;97478.47;103072;1298;139351;-72
2022/11/21 07:13:42;;;;;;;103.10;47.20;;;;;;;-1.96;91.94;97475.00;103115;1303;22507;-72
2022/11/21 07:16:14;;;;;;;103.60;48.90;;;;;;;-1.87;91.71;97472.50;102945;1288;138413;-73
2022/11/21 07:18:41;;;;;;;113.50;52.20;;;;;;;-1.81;91.63;97473.60;103141;1309;23338;-72
2022/11/21 07:21:09;;;;;;;103.30;49.80;;;;;;;-1.75;91.15;97471.99;103094;1297;24327;-72
2022/11/21 07:23:36;;;;;;;97.30;46.00;;;;;;;-1.69;91.02;97473.58;103022;1302;138374;-74
2022/11/21 07:26:05;;;;;;;105.00;49.00;;;;;;;-1.62;90.73;97475.55;103030;1285;22479;-73
2022/11/21 07:28:33;;;;;;;102.20;49.00;;;;;;;-1.53;90.91;97475.52;103076;1289;138086;-72
2022/11/21 07:31:02;;;;;;;107.00;48.10;;;;;;;-1.54;90.26;97472.94;103160;1291;22536;-72
2022/11/21 07:33:29;;;;;;;106.10;48.90;;;;;;;-1.58;90.30;97463.83;103352;1312;24450;-72
2022/11/21 07:35:57;;;;;;;106.50;50.00;;;;;;;-1.61;89.96;97463.55;103101;1313;22476;-73
2022/11/21 07:38:25;;;;;;;99.50;47.30;;;;;;;-1.61;90.50;97463.48;103413;1289;25214;-73
2022/11/21 07:40:54;;;;;;;108.70;49.00;;;;;;;-1.58;90.57;97462.80;102918;1282;137991;-73
2022/11/21 07:43:21;;;;;;;;;;;;;;;-1.57;90.75;97459.23;103200;1298;23087;-73
2022/11/21 07:45:48;;;;;;;98.80;44.90;;;;;;;-1.56;90.71;97461.83;103351;1298;124775;-73
2022/11/21 07:48:15;;;;;;;114.40;52.70;;;;;;;-1.55;91.12;97463.44;103267;1305;22481;-72
2022/11/21 07:50:42;;;;;;;105.10;49.50;;;;;;;-1.47;91.76;97462.98;102994;1312;24305;-73
2022/11/21 07:53:12;;;;;;;99.50;47.70;;;;;;;-1.36;91.66;97457.81;103375;1290;139318;-73
2022/11/21 07:55:41;;;;;;;109.40;51.00;;;;;;;-1.21;92.52;97456.35;103094;1297;25344;-73
2022/11/21 07:58:11;;;;;;;98.30;46.90;;;;;;;-1.04;92.76;97448.81;103091;1285;138682;-73
2022/11/21 08:00:41;;;;;;;93.10;45.30;;;;;;;-0.88;92.75;97448.75;102923;1310;24048;-73
2022/11/21 08:03:21;;;;;;;100.20;49.50;;;;;;;-0.74;92.87;97444.05;103022;1288;23038;-73
2022/11/21 08:06:14;;;;;;;104.50;47.90;;;;;;;-0.54;93.17;97441.02;103037;1312;24270;-73
2022/11/21 08:08:44;;;;;;;98.20;49.90;;;;;;;-0.37;93.45;97434.67;103210;1306;22519;-73
2022/11/21 08:11:16;;;;;;;106.30;52.10;;;;;;;-0.20;93.43;97428.19;102817;1290;137762;-73
2022/11/21 08:13:47;;;;;;;100.00;51.10;;;;;;;-0.06;93.30;97421.98;102787;1290;24313;-73
2022/11/21 08:16:17;;;;;;;95.00;47.30;;;;;;;0.10;93.38;97422.15;102910;1312;137743;-74
2022/11/21 08:18:50;;;;;;;86.90;43.00;;;;;;;0.23;93.08;97418.67;102905;1290;22987;-74
2022/11/21 08:21:17;;;;;;;83.90;39.70;;;;;;;0.37;93.16;97420.04;103125;1281;22547;-74
2022/11/21 08:23:44;;;;;;;75.50;38.30;;;;;;;0.50;93.13;97422.09;102885;1313;137502;-74
2022/11/21 08:26:12;;;;;;;72.10;38.20;;;;;;;0.60;92.81;97415.86;103033;1285;25433;-73
2022/11/21 08:28:40;;;;;;;70.70;35.90;;;;;;;0.70;92.93;97415.20;102962;1285;137205;-74
2022/11/21 08:31:10;;;;;;;65.00;32.80;;;;;;;0.76;92.45;97413.13;103157;1291;22476;-75
2022/11/21 08:33:38;;;;;;;71.40;34.00;;;;;;;0.83;92.45;97408.26;103077;1289;22602;-74
2022/11/21 08:36:07;;;;;;;61.80;33.30;;;;;;;0.91;92.34;97416.95;102950;1293;22482;-75
2022/11/21 08:38:35;;;;;;;67.00;32.70;;;;;;;0.98;92.30;97418.05;103014;1309;25877;-75
2022/11/21 08:43:49;;;;;;;69.60;34.90;;;;;;;1.03;91.47;97415.93;103090;1302;22482;-75
2022/11/21 08:46:17;;;;;;;66.20;34.20;;;;;;;1.08;91.77;97410.05;103048;1279;138547;-75
2022/11/21 08:48:45;;;;;;;65.90;33.30;;;;;;;1.16;91.79;97410.95;103274;1296;24227;-75
2022/11/21 08:51:14;;;;;;;58.00;31.70;;;;;;;1.20;91.26;97409.52;103138;1292;22501;-75
2022/11/21 08:53:42;;;;;;;61.10;30.70;;;;;;;1.22;91.06;97407.33;103216;1290;139009;-74
2022/11/21 08:56:09;;;;;;;60.20;31.70;;;;;;;1.28;91.03;97405.71;102833;1288;22591;-74
2022/11/21 08:58:37;;;;;;;62.80;34.20;;;;;;;1.31;91.04;97406.27;102864;1310;137346;-74
2022/11/21 09:01:07;;;;;;;64.20;34.60;;;;;;;1.37;90.87;97406.55;102967;1310;22900;-74
2022/11/21 09:03:39;;;;;;;60.60;32.90;;;;;;;1.44;90.40;97410.85;102961;1312;24431;-74
2022/11/21 09:06:09;;;;;;;63.90;32.30;;;;;;;1.49;90.44;97407.33;102964;1291;26484;-75
2022/11/21 09:09:04;;;;;;;65.30;33.40;;;;;;;1.59;90.07;97409.48;102963;1288;22538;-74
2022/11/21 09:11:45;;;;;;;74.00;35.60;;;;;;;1.64;89.72;97413.36;102897;1287;137279;-75
2022/11/21 09:19:43;;;;;;;70.20;33.10;;;;;;;1.81;89.28;97413.73;102961;1311;25502;-75
2022/11/21 09:22:10;;;;;;;63.50;33.40;;;;;;;1.84;89.10;97416.16;102811;1298;137432;-74
2022/11/21 09:24:37;;;;;;;70.70;32.80;;;;;;;1.90;89.11;97415.34;102906;1295;22501;-75
2022/11/21 09:27:04;;;;;;;66.90;31.60;;;;;;;1.93;88.91;97418.17;103041;1309;22475;-74
2022/11/21 09:29:31;;;;;;;66.80;34.30;;;;;;;1.94;88.93;97412.58;102873;1296;137231;-75
2022/11/21 09:31:58;;;;;;;66.60;34.10;;;;;;;1.97;88.80;97410.02;102937;1289;24439;-75
2022/11/21 09:34:26;;;;;;;58.60;32.30;;;;;;;2.01;88.48;97412.88;103047;1285;137584;-75
2022/11/21 09:36:54;;;;;;;61.40;32.20;;;;;;;2.04;88.64;97412.45;103079;1305;22498;-75
2022/11/21 09:39:22;;;;;;;68.20;34.20;;;;;;;2.04;88.43;97413.55;103033;1295;22534;-75
2022/11/21 09:41:53;;;;;;;66.80;33.90;;;;;;;2.03;88.43;97409.05;103020;1298;137319;-75
2022/11/21 09:44:51;;;;;;;73.10;36.60;;;;;;;2.00;88.29;97407.52;102927;1301;22321;-75
2022/11/21 09:47:49;;;;;;;67.20;34.30;;;;;;;1.97;88.40;97402.73;102694;1312;138134;-75
2022/11/21 09:50:31;;;;;;;63.30;33.70;;;;;;;1.97;88.71;97403.15;102854;1304;22498;-75
2022/11/21 09:53:12;;;;;;;66.40;34.20;;;;;;;2.00;88.68;97405.20;102935;1289;138916;-76
2022/11/21 09:55:46;;;;;;;66.80;35.70;;;;;;;2.00;88.78;97406.64;102761;1307;25446;-75
2022/11/21 09:58:31;;;;;;;63.80;34.10;;;;;;;1.98;88.46;97408.35;102896;1289;137953;-75
2022/11/21 10:00:58;;;;;;;66.50;35.50;;;;;;;1.95;88.42;97403.78;102932;1297;22492;-75
2022/11/21 10:03:30;;;;;;;62.30;35.10;;;;;;;1.91;88.09;97403.19;102982;1310;22912;-75
2022/11/21 10:06:08;;;;;;;62.40;33.80;;;;;;;1.88;88.32;97397.88;102987;1296;137376;-75
2022/11/21 10:09:00;;;;;;;59.80;34.20;;;;;;;1.87;88.39;97394.03;102974;1289;22488;-75
2022/11/21 10:14:41;;;;;;;71.20;36.50;;;;;;;1.85;88.15;97388.16;103139;1305;22763;-75
2022/11/21 10:17:37;;;;;;;71.50;37.50;;;;;;;1.81;88.38;97389.69;102788;1284;138514;-75
2022/11/21 10:20:30;;;;;;;67.20;35.10;;;;;;;1.81;88.19;97390.16;102918;1297;25330;-75
2022/11/21 10:23:08;;;;;;;69.30;36.60;;;;;;;1.83;88.45;97386.10;103340;1288;137509;-75
2022/11/21 10:25:37;;;;;;;68.80;34.90;;;;;;;1.85;88.53;97385.00;102900;1311;24528;-75
2022/11/21 10:28:46;;;;;;;70.80;39.00;;;;;;;1.84;88.19;97388.19;103034;1283;137431;-75
2022/11/21 10:31:14;;;;;;;77.70;39.10;;;;;;;1.84;88.73;97388.56;102976;1304;22478;-74
2022/11/21 10:33:43;;;;;;;80.50;38.70;;;;;;;1.89;88.99;97381.69;103354;1294;23705;-74
2022/11/21 10:36:11;;;;;;;70.60;38.20;;;;;;;1.90;88.41;97379.52;103216;1311;22601;-74
2022/11/21 10:38:42;;;;;;;69.60;37.30;;;;;;;1.92;88.02;97378.19;103064;1303;24948;-74
2022/11/21 10:41:47;;;;;;;70.70;35.40;;;;;;;1.95;88.13;97374.16;103050;1313;137756;-73
2022/11/21 10:47:29;;;;;;;75.60;37.50;;;;;;;2.09;88.57;97371.05;102712;1288;137296;-74
2022/11/21 10:50:04;;;;;;;72.70;39.70;;;;;;;2.18;88.52;97369.34;103137;1307;22547;-73
2022/11/21 10:52:48;;;;;;;71.80;35.80;;;;;;;2.24;88.34;97365.36;102778;1297;272752;-73
2022/11/21 10:55:17;;;;;;;69.50;34.80;;;;;;;2.35;88.52;97362.48;103369;1287;25259;-73
2022/11/21 10:57:49;;;;;;;65.20;35.40;;;;;;;2.41;88.07;97365.48;103017;1312;137632;-72
2022/11/21 11:00:23;;;;;;;67.60;37.40;;;;;;;2.46;88.20;97367.99;102975;1306;22477;-72
2022/11/21 11:03:05;;;;;;;73.20;38.30;;;;;;;2.54;88.16;97366.20;103284;1312;25280;-72
2022/11/21 11:05:36;;;;;;;73.70;40.40;;;;;;;2.58;87.67;97365.13;102931;1299;137420;-72
2022/11/21 11:08:11;;;;;;;68.90;37.00;;;;;;;2.63;87.70;97366.16;102934;1308;22499;-72
2022/11/21 11:11:00;;;;;;;72.50;38.10;;;;;;;2.69;87.24;97362.38;103212;1289;137518;-72
2022/11/21 11:15:57;;;;;;;71.90;39.20;;;;;;;2.77;87.20;97355.14;102588;1284;138231;-72
2022/11/21 11:18:25;;;;;;;69.80;36.50;;;;;;;2.79;87.06;97349.23;103126;1304;25207;-72
2022/11/21 11:20:52;;;;;;;64.60;35.70;;;;;;;2.82;86.91;97345.58;103244;1290;22480;-72
2022/11/21 11:23:19;;;;;;;71.20;37.10;;;;;;;2.84;86.24;97338.77;103169;1304;137844;-72
2022/11/21 11:25:48;;;;;;;66.10;34.60;;;;;;;2.81;85.83;97333.80;103091;1281;24231;-72
2022/11/21 11:28:18;;;;;;;62.20;32.90;;;;;;;2.78;85.47;97334.00;103215;1313;138369;-72
2022/11/21 11:30:47;;;;;;;59.90;33.60;;;;;;;2.76;85.41;97329.64;102949;1298;25321;-72
2022/11/21 11:33:37;;;;;;;64.70;33.50;;;;;;;2.71;85.21;97330.65;103077;1304;22482;-69
2022/11/21 11:36:26;;;;;;;70.40;35.60;;;;;;;2.64;85.32;97329.75;102933;1312;137355;-69
2022/11/21 11:38:56;;;;;;;63.80;35.70;;;;;;;2.60;85.57;97331.41;102878;1312;24312;-69
2022/11/21 11:41:26;;;;;;;73.80;37.40;;;;;;;2.61;86.04;97337.89;102809;1300;138251;-70
2022/11/21 11:47:31;;;;;;;64.80;34.60;;;;;;;2.69;86.37;97336.23;102975;1289;137648;-72